createdAt,value
2023-04-15T00:00:00.531Z,84.4
2023-04-15T00:01:00.546Z,84.4
2023-04-15T00:02:00.575Z,84.4
2023-04-15T00:03:00.669Z,84.4
2023-04-15T00:04:00.648Z,84.4
2023-04-15T00:05:00.660Z,84.4
2023-04-15T00:06:00.544Z,84.4
2023-04-15T00:07:00.511Z,84.7
2023-04-15T00:08:00.540Z,84.7
2023-04-15T00:09:00.817Z,84.7
2023-04-15T00:10:00.564Z,85
2023-04-15T00:11:00.532Z,85
2023-04-15T00:12:00.532Z,84.7
2023-04-15T00:13:00.535Z,84.7
2023-04-15T00:14:00.533Z,84.7
2023-04-15T00:15:00.601Z,85
2023-04-15T00:16:00.521Z,84.7
2023-04-15T00:17:00.592Z,84.4
2023-04-15T00:18:00.667Z,84.4
2023-04-15T00:19:00.849Z,84.4
2023-04-15T00:20:00.589Z,84.4
2023-04-15T00:21:00.550Z,84.4
2023-04-15T00:22:00.526Z,84.4
2023-04-15T00:23:00.555Z,84.4
2023-04-15T00:24:00.527Z,84.4
2023-04-15T00:25:00.551Z,84.7
2023-04-15T00:26:00.531Z,84.7
2023-04-15T00:27:00.557Z,84.7
2023-04-15T00:28:00.571Z,84.7
2023-04-15T00:29:00.810Z,85
2023-04-15T00:30:00.849Z,85
2023-04-15T00:31:00.565Z,85
2023-04-15T00:32:00.566Z,85.3
2023-04-15T00:33:00.609Z,85.3
2023-04-15T00:34:00.544Z,85.3
2023-04-15T00:35:00.592Z,85.6
2023-04-15T00:36:00.618Z,85.6
2023-04-15T00:37:00.586Z,85.6
2023-04-15T00:38:00.628Z,85.5
2023-04-15T00:39:00.866Z,85.6
2023-04-15T00:40:00.600Z,85.9
2023-04-15T00:41:00.600Z,86.2
2023-04-15T00:42:00.573Z,85.9
2023-04-15T00:43:00.636Z,85.9
2023-04-15T00:44:00.585Z,86.2
2023-04-15T00:45:00.584Z,86.2
2023-04-15T00:46:00.601Z,85.9
2023-04-15T00:47:00.575Z,85.9
2023-04-15T00:48:00.672Z,85.9
2023-04-15T00:49:00.819Z,85.6
2023-04-15T00:50:00.610Z,85.9
2023-04-15T00:51:00.579Z,85.9
2023-04-15T00:52:00.569Z,86.2
2023-04-15T00:53:00.559Z,85.9
2023-04-15T00:54:00.585Z,86.2
2023-04-15T00:55:00.587Z,86.2
2023-04-15T00:56:00.588Z,85.9
2023-04-15T00:57:00.565Z,86.2
2023-04-15T00:58:00.586Z,85.5
2023-04-15T00:59:00.762Z,85.9
2023-04-15T01:00:00.618Z,85.8
2023-04-15T01:01:00.628Z,85.8
2023-04-15T01:02:00.723Z,86.2
2023-04-15T01:03:00.929Z,86.2
2023-04-15T01:04:00.739Z,86.2
2023-04-15T01:05:00.639Z,86.1
2023-04-15T01:06:02.209Z,86.2
2023-04-15T01:07:00.602Z,85.8
2023-04-15T01:08:00.627Z,86.1
2023-04-15T01:09:00.874Z,86.1
2023-04-15T01:10:00.592Z,86.2
2023-04-15T01:11:00.625Z,86.1
2023-04-15T01:12:00.592Z,86.2
2023-04-15T01:13:00.578Z,86.1
2023-04-15T01:14:00.610Z,86.2
2023-04-15T01:15:00.590Z,86.1
2023-04-15T01:16:00.653Z,86.2
2023-04-15T01:17:00.603Z,86.2
2023-04-15T01:18:00.667Z,86.2
2023-04-15T01:19:00.840Z,86.2
2023-04-15T01:20:00.609Z,86.1
2023-04-15T01:21:00.611Z,86.2
2023-04-15T01:22:00.589Z,86.2
2023-04-15T01:23:00.592Z,86.1
2023-04-15T01:24:00.639Z,86.2
2023-04-15T01:25:00.613Z,86.2
2023-04-15T01:26:00.623Z,85.9
2023-04-15T01:27:00.657Z,86.2
2023-04-15T01:28:00.590Z,85.9
2023-04-15T01:29:00.788Z,85.9
2023-04-15T01:30:00.680Z,85.5
2023-04-15T01:31:00.678Z,85.9
2023-04-15T01:32:00.613Z,85.8
2023-04-15T01:33:00.663Z,85.8
2023-04-15T01:34:00.607Z,85.5
2023-04-15T01:35:00.623Z,86.2
2023-04-15T01:36:00.647Z,86.2
2023-04-15T01:37:00.623Z,86.2
2023-04-15T01:38:00.612Z,85.6
2023-04-15T01:39:00.890Z,85.9
2023-04-15T01:40:00.626Z,85.9
2023-04-15T01:41:00.618Z,85.9
2023-04-15T01:42:00.660Z,85.9
2023-04-15T01:43:00.613Z,85.6
2023-04-15T01:44:00.616Z,85.5
2023-04-15T01:45:00.657Z,85.9
2023-04-15T01:46:00.666Z,85.8
2023-04-15T01:47:00.669Z,85.8
2023-04-15T01:48:00.684Z,85.8
2023-04-15T01:49:00.775Z,86.2
2023-04-15T01:50:00.640Z,85.8
2023-04-15T01:51:00.652Z,86.1
2023-04-15T01:52:00.628Z,86.1
2023-04-15T01:53:00.631Z,86.2
2023-04-15T01:54:00.627Z,86.1
2023-04-15T01:55:00.657Z,86.1
2023-04-15T01:56:00.640Z,86.1
2023-04-15T01:57:00.640Z,86.1
2023-04-15T01:58:00.649Z,86.1
2023-04-15T01:59:00.857Z,86.4
2023-04-15T02:00:00.817Z,86.1
2023-04-15T02:01:01.575Z,86.1
2023-04-15T02:02:01.564Z,86.1
2023-04-15T02:03:01.555Z,86.1
2023-04-15T02:04:01.563Z,86.4
2023-04-15T02:05:01.531Z,86.4
2023-04-15T02:06:01.537Z,86.7
2023-04-15T02:07:01.679Z,86.7
2023-04-15T02:08:01.503Z,87
2023-04-15T02:09:01.782Z,86.8
2023-04-15T02:10:01.621Z,87.3
2023-04-15T02:11:01.492Z,87.3
2023-04-15T02:12:01.511Z,87.3
2023-04-15T02:13:01.507Z,87.3
2023-04-15T02:14:01.521Z,87.3
2023-04-15T02:15:01.538Z,87.3
2023-04-15T02:16:01.610Z,87.3
2023-04-15T02:17:01.507Z,87.3
2023-04-15T02:18:01.599Z,87.3
2023-04-15T02:19:01.801Z,87.3
2023-04-15T02:20:01.569Z,87.1
2023-04-15T02:21:01.512Z,87.3
2023-04-15T02:22:01.526Z,87.3
2023-04-15T02:23:01.574Z,87.3
2023-04-15T02:24:01.511Z,87.3
2023-04-15T02:25:01.545Z,87.3
2023-04-15T02:26:01.510Z,87.6
2023-04-15T02:27:01.514Z,87.9
2023-04-15T02:28:01.521Z,87.9
2023-04-15T02:29:01.637Z,87.9
2023-04-15T02:30:01.567Z,87.9
2023-04-15T02:31:01.521Z,87.9
2023-04-15T02:32:01.617Z,87.9
2023-04-15T02:33:01.573Z,87.8
2023-04-15T02:34:01.532Z,87.9
2023-04-15T02:35:01.597Z,87.8
2023-04-15T02:36:01.540Z,88.2
2023-04-15T02:37:01.669Z,88.2
2023-04-15T02:38:01.523Z,88.2
2023-04-15T02:39:01.636Z,88.1
2023-04-15T02:40:01.684Z,88.2
2023-04-15T02:41:01.543Z,88.4
2023-04-15T02:42:01.637Z,88.5
2023-04-15T02:43:01.534Z,88.5
2023-04-15T02:44:01.545Z,88.4
2023-04-15T02:45:01.564Z,88.7
2023-04-15T02:46:01.575Z,89.1
2023-04-15T02:47:01.539Z,89.1
2023-04-15T02:48:01.557Z,89.1
2023-04-15T02:49:01.640Z,89.1
2023-04-15T02:50:01.578Z,89.1
2023-04-15T02:51:01.546Z,89.1
2023-04-15T02:52:01.591Z,89.1
2023-04-15T02:53:01.878Z,89.1
2023-04-15T02:54:01.592Z,89.1
2023-04-15T02:55:01.583Z,89.1
2023-04-15T02:56:01.538Z,89.1
2023-04-15T02:57:01.556Z,89.1
2023-04-15T02:58:01.552Z,89
2023-04-15T02:59:01.992Z,89
2023-04-15T03:00:01.913Z,89.1
2023-04-15T03:01:01.567Z,89
2023-04-15T03:02:01.573Z,89.4
2023-04-15T03:03:01.752Z,89.4
2023-04-15T03:04:01.634Z,89.1
2023-04-15T03:05:01.565Z,89
2023-04-15T03:06:01.553Z,89
2023-04-15T03:07:01.570Z,89.1
2023-04-15T03:08:01.623Z,89
2023-04-15T03:09:01.894Z,89
2023-04-15T03:10:01.588Z,89.4
2023-04-15T03:11:01.620Z,89.4
2023-04-15T03:12:01.603Z,89.4
2023-04-15T03:13:01.597Z,89.4
2023-04-15T03:14:01.558Z,89
2023-04-15T03:15:01.647Z,89
2023-04-15T03:16:01.601Z,89.3
2023-04-15T03:17:01.575Z,89.3
2023-04-15T03:18:01.602Z,89.3
2023-04-15T03:19:01.870Z,89.4
2023-04-15T03:20:01.621Z,89.4
2023-04-15T03:21:01.566Z,89.7
2023-04-15T03:22:01.588Z,89.6
2023-04-15T03:23:01.590Z,89.3
2023-04-15T03:24:01.564Z,89.6
2023-04-15T03:25:01.575Z,89.6
2023-04-15T03:26:01.573Z,89.7
2023-04-15T03:27:01.588Z,89.6
2023-04-15T03:28:01.567Z,89.7
2023-04-15T03:29:01.801Z,89.6
2023-04-15T03:30:01.634Z,89.6
2023-04-15T03:31:01.620Z,89.7
2023-04-15T03:32:01.626Z,89.7
2023-04-15T03:33:01.774Z,89.9
2023-04-15T03:34:01.665Z,90.3
2023-04-15T03:35:01.585Z,90.3
2023-04-15T03:36:01.578Z,90.3
2023-04-15T03:37:01.622Z,90.3
2023-04-15T03:38:01.582Z,90
2023-04-15T03:39:01.818Z,89.9
2023-04-15T03:40:01.629Z,90
2023-04-15T03:41:01.613Z,90
2023-04-15T03:42:01.622Z,90
2023-04-15T03:43:01.588Z,89.5
2023-04-15T03:44:01.594Z,89.6
2023-04-15T03:45:01.594Z,89.6
2023-04-15T03:46:02.108Z,89.6
2023-04-15T03:47:01.627Z,89.7
2023-04-15T03:49:01.806Z,89.9
2023-04-15T03:50:01.672Z,89.8
2023-04-15T03:51:01.634Z,89.6
2023-04-15T03:52:01.660Z,89.9
2023-04-15T03:53:01.594Z,89.9
2023-04-15T03:54:01.616Z,89.9
2023-04-15T03:55:01.602Z,89.6
2023-04-15T03:56:01.656Z,89.9
2023-04-15T03:57:01.605Z,89.9
2023-04-15T03:58:01.646Z,89.9
2023-04-15T03:59:01.921Z,89.9
2023-04-15T04:00:01.847Z,90.3
2023-04-15T04:01:01.641Z,89.9
2023-04-15T04:02:01.734Z,89.9
2023-04-15T04:03:01.887Z,90.2
2023-04-15T04:04:01.764Z,90.2
2023-04-15T04:05:01.638Z,90.2
2023-04-15T04:06:01.643Z,90.2
2023-04-15T04:07:01.649Z,90.2
2023-04-15T04:08:01.653Z,90.2
2023-04-15T04:09:01.912Z,90.2
2023-04-15T04:10:01.667Z,90
2023-04-15T04:11:01.688Z,90.2
2023-04-15T04:12:01.716Z,90.2
2023-04-15T04:13:01.654Z,90.2
2023-04-15T04:14:01.638Z,90.2
2023-04-15T04:15:01.747Z,90.2
2023-04-15T04:16:01.764Z,90.2
2023-04-15T04:17:01.722Z,90.2
2023-04-15T04:18:01.751Z,90.2
2023-04-15T04:19:01.818Z,90.2
2023-04-15T04:20:01.708Z,90.2
2023-04-15T04:21:01.662Z,90.2
2023-04-15T04:22:01.691Z,90.2
2023-04-15T04:23:01.648Z,90.2
2023-04-15T04:24:01.712Z,90.2
2023-04-15T04:25:01.657Z,90.2
2023-04-15T04:26:01.663Z,90.2
2023-04-15T04:27:01.740Z,90.5
2023-04-15T04:28:01.740Z,90.5
2023-04-15T04:29:01.913Z,90.5
2023-04-15T04:30:00.532Z,90.8
2023-04-15T04:31:00.544Z,90.8
2023-04-15T04:32:00.573Z,90.8
2023-04-15T04:33:00.583Z,90.8
2023-04-15T04:34:00.524Z,90.8
2023-04-15T04:35:00.517Z,90.8
2023-04-15T04:36:00.501Z,90.8
2023-04-15T04:37:00.525Z,90.8
2023-04-15T04:38:00.504Z,90.8
2023-04-15T04:39:00.826Z,90.8
2023-04-15T04:40:00.529Z,90.7
2023-04-15T04:41:00.498Z,90.9
2023-04-15T04:42:00.527Z,91.1
2023-04-15T04:43:00.502Z,90.9
2023-04-15T04:44:00.549Z,90.9
2023-04-15T04:45:00.504Z,90.7
2023-04-15T04:46:00.573Z,90.7
2023-04-15T04:47:00.549Z,90.9
2023-04-15T04:48:00.570Z,90.9
2023-04-15T04:49:00.658Z,90.9
2023-04-15T04:50:00.649Z,90.9
2023-04-15T04:51:00.503Z,90.9
2023-04-15T04:52:00.536Z,90.9
2023-04-15T04:53:00.559Z,90.9
2023-04-15T04:54:02.450Z,90.7
2023-04-15T04:55:00.544Z,90.9
2023-04-15T04:56:00.511Z,90.7
2023-04-15T04:57:00.555Z,90.9
2023-04-15T04:58:00.523Z,90.9
2023-04-15T04:59:00.809Z,91.3
2023-04-15T05:00:00.736Z,91
2023-04-15T05:01:00.578Z,91
2023-04-15T05:02:00.707Z,91
2023-04-15T05:03:00.817Z,91.1
2023-04-15T05:04:00.860Z,91
2023-04-15T05:05:00.520Z,90.8
2023-04-15T05:06:00.528Z,91
2023-04-15T05:07:00.547Z,91
2023-04-15T05:08:00.530Z,91
2023-04-15T05:09:00.905Z,91
2023-04-15T05:10:00.584Z,91
2023-04-15T05:11:00.551Z,91
2023-04-15T05:12:00.546Z,90.9
2023-04-15T05:13:00.527Z,91
2023-04-15T05:14:00.562Z,91.1
2023-04-15T05:15:00.576Z,91.1
2023-04-15T05:16:00.583Z,91.1
2023-04-15T05:17:00.548Z,91.1
2023-04-15T05:18:00.569Z,91.1
2023-04-15T05:19:00.883Z,91.1
2023-04-15T05:20:00.547Z,91.1
2023-04-15T05:21:00.572Z,90.8
2023-04-15T05:22:00.565Z,90.8
2023-04-15T05:23:00.546Z,90.5
2023-04-15T05:24:00.553Z,90.5
2023-04-15T05:25:00.587Z,90.5
2023-04-15T05:26:00.583Z,90.6
2023-04-15T05:27:00.595Z,90.6
2023-04-15T05:28:00.563Z,90.3
2023-04-15T05:29:00.880Z,90.6
2023-04-15T05:30:00.585Z,90.3
2023-04-15T05:31:00.594Z,90
2023-04-15T05:32:00.585Z,90
2023-04-15T05:33:00.577Z,90
2023-04-15T05:34:00.563Z,90
2023-04-15T05:35:00.559Z,90
2023-04-15T05:36:00.583Z,90
2023-04-15T05:37:00.580Z,89.7
2023-04-15T05:38:00.571Z,89.7
2023-04-15T05:39:00.978Z,89.7
2023-04-15T05:40:00.601Z,89.7
2023-04-15T05:41:00.563Z,89.7
2023-04-15T05:42:00.589Z,89.4
2023-04-15T05:43:00.563Z,89.4
2023-04-15T05:44:00.607Z,89.4
2023-04-15T05:45:00.563Z,89.2
2023-04-15T05:46:00.600Z,89.2
2023-04-15T05:47:00.591Z,89.3
2023-04-15T05:48:00.637Z,89.5
2023-04-15T05:49:00.884Z,89.3
2023-04-15T05:50:00.565Z,89.5
2023-04-15T05:51:00.597Z,89.2
2023-04-15T05:52:00.588Z,89.2
2023-04-15T05:53:00.575Z,89.5
2023-04-15T05:54:00.595Z,89
2023-04-15T05:55:00.614Z,88.9
2023-04-15T05:56:00.616Z,88.9
2023-04-15T05:57:00.593Z,88.9
2023-04-15T05:58:00.575Z,88.9
2023-04-15T05:59:00.908Z,88.6
2023-04-15T06:00:00.576Z,88.6
2023-04-15T06:01:00.589Z,88.6
2023-04-15T06:02:00.604Z,88.3
2023-04-15T06:03:00.704Z,88.1
2023-04-15T06:04:00.716Z,88.3
2023-04-15T06:05:00.731Z,88
2023-04-15T06:06:00.595Z,87.7
2023-04-15T06:07:00.588Z,88
2023-04-15T06:08:00.603Z,87.7
2023-04-15T06:09:00.930Z,87.7
2023-04-15T06:10:00.619Z,87.7
2023-04-15T06:11:00.600Z,87.7
2023-04-15T06:12:00.590Z,87.7
2023-04-15T06:13:00.585Z,87.7
2023-04-15T06:14:00.612Z,87.1
2023-04-15T06:15:00.618Z,86.9
2023-04-15T06:16:00.625Z,86.9
2023-04-15T06:17:00.615Z,86.4
2023-04-15T06:18:00.638Z,86.6
2023-04-15T06:19:01.054Z,86.6
2023-04-15T06:20:00.596Z,86.6
2023-04-15T06:21:00.638Z,86.6
2023-04-15T06:22:00.614Z,86.6
2023-04-15T06:23:00.614Z,86.6
2023-04-15T06:24:00.633Z,86.6
2023-04-15T06:25:00.620Z,86.6
2023-04-15T06:26:00.626Z,86.6
2023-04-15T06:27:00.604Z,86.6
2023-04-15T06:28:00.612Z,86.7
2023-04-15T06:29:00.917Z,86
2023-04-15T06:30:00.608Z,86
2023-04-15T06:31:00.628Z,86
2023-04-15T06:32:00.679Z,86.1
2023-04-15T06:33:00.707Z,86.1
2023-04-15T06:34:00.639Z,86.1
2023-04-15T06:35:00.633Z,86.1
2023-04-15T06:36:00.647Z,86.1
2023-04-15T06:37:00.617Z,86.1
2023-04-15T06:38:00.621Z,85.8
2023-04-15T06:39:00.812Z,85.5
2023-04-15T06:40:00.647Z,85.5
2023-04-15T06:41:00.656Z,85.5
2023-04-15T06:42:00.618Z,85.1
2023-04-15T06:43:00.618Z,85.2
2023-04-15T06:44:00.651Z,84.6
2023-04-15T06:45:00.633Z,83.1
2023-04-15T06:46:00.674Z,82.9
2023-04-15T06:47:00.644Z,82.5
2023-04-15T06:48:00.760Z,82.5
2023-04-15T06:49:00.790Z,82.5
2023-04-15T06:50:00.620Z,82.8
2023-04-15T06:51:00.657Z,83.1
2023-04-15T06:52:00.664Z,82.5
2023-04-15T06:53:00.652Z,82.5
2023-04-15T06:54:00.645Z,81.9
2023-04-15T06:55:00.686Z,81.3
2023-04-15T06:56:00.664Z,81.3
2023-04-15T06:57:00.643Z,80.1
2023-04-15T06:58:00.701Z,79.8
2023-04-15T06:59:00.881Z,80.1
2023-04-15T07:00:00.722Z,80.1
2023-04-15T07:01:00.693Z,80.1
2023-04-15T07:02:00.710Z,79.8
2023-04-15T07:03:00.718Z,80.4
2023-04-15T07:04:00.737Z,79.8
2023-04-15T07:05:00.678Z,80.1
2023-04-15T07:06:00.678Z,80.1
2023-04-15T07:07:00.662Z,80.1
2023-04-15T07:08:00.662Z,79.9
2023-04-15T07:09:00.987Z,79.4
2023-04-15T07:10:00.674Z,79.3
2023-04-15T07:11:00.676Z,79
2023-04-15T07:12:00.643Z,79
2023-04-15T07:13:00.644Z,79.3
2023-04-15T07:14:00.654Z,79.3
2023-04-15T07:15:00.693Z,78.1
2023-04-15T07:16:00.644Z,76.8
2023-04-15T07:17:00.728Z,77.2
2023-04-15T07:18:00.721Z,76.6
2023-04-15T07:19:00.923Z,75.9
2023-04-15T07:20:00.666Z,76
2023-04-15T07:21:00.668Z,74.7
2023-04-15T07:22:00.647Z,75.6
2023-04-15T07:23:00.674Z,75
2023-04-15T07:24:00.652Z,74.1
2023-04-15T07:25:00.675Z,73.8
2023-04-15T07:26:00.671Z,73.8
2023-04-15T07:27:01.384Z,73.2
2023-04-15T07:28:00.678Z,73.5
2023-04-15T07:29:00.972Z,72.9
2023-04-15T07:30:00.684Z,72.9
2023-04-15T07:31:00.686Z,73.5
2023-04-15T07:32:00.670Z,73.2
2023-04-15T07:33:00.706Z,72.3
2023-04-15T07:34:00.676Z,72.3
2023-04-15T07:35:00.681Z,72.6
2023-04-15T07:36:00.688Z,72.3
2023-04-15T07:37:00.696Z,71.7
2023-04-15T07:38:00.690Z,71.7
2023-04-15T07:39:00.916Z,71.4
2023-04-15T07:40:00.706Z,71.7
2023-04-15T07:41:00.674Z,71.7
2023-04-15T07:42:00.667Z,71.1
2023-04-15T07:43:00.677Z,70.2
2023-04-15T07:44:00.691Z,70.5
2023-04-15T07:45:00.704Z,69.6
2023-04-15T07:46:00.703Z,69.6
2023-04-15T07:47:00.697Z,70.2
2023-04-15T07:48:00.724Z,69.9
2023-04-15T07:49:01.030Z,69.3
2023-04-15T07:50:00.722Z,68.4
2023-04-15T07:51:00.680Z,69.3
2023-04-15T07:52:00.680Z,69.9
2023-04-15T07:53:00.701Z,69.8
2023-04-15T07:54:00.752Z,69.3
2023-04-15T07:55:00.712Z,70
2023-04-15T07:56:00.684Z,68.7
2023-04-15T07:57:00.703Z,69.4
2023-04-15T07:58:00.700Z,68.7
2023-04-15T07:59:00.881Z,68.1
2023-04-15T08:00:00.765Z,68.7
2023-04-15T08:01:00.691Z,68.4
2023-04-15T08:02:00.814Z,68.1
2023-04-15T08:03:00.970Z,68.1
2023-04-15T08:04:00.910Z,67.5
2023-04-15T08:05:00.801Z,67.5
2023-04-15T08:06:00.762Z,66.9
2023-04-15T08:07:00.729Z,66.9
2023-04-15T08:08:00.702Z,68.1
2023-04-15T08:09:01.162Z,66.6
2023-04-15T08:10:00.734Z,66.9
2023-04-15T08:11:00.723Z,66.9
2023-04-15T08:12:00.722Z,66.9
2023-04-15T08:13:00.705Z,66.6
2023-04-15T08:14:00.717Z,65.7
2023-04-15T08:15:00.761Z,66.3
2023-04-15T08:16:00.818Z,66.6
2023-04-15T08:17:00.713Z,66.3
2023-04-15T08:18:00.879Z,66.3
2023-04-15T08:19:00.888Z,66.3
2023-04-15T08:20:00.742Z,65.7
2023-04-15T08:21:00.740Z,65.7
2023-04-15T08:22:00.710Z,65.4
2023-04-15T08:23:00.713Z,65.7
2023-04-15T08:24:00.721Z,67
2023-04-15T08:25:00.765Z,66.4
2023-04-15T08:26:00.720Z,65.1
2023-04-15T08:27:00.750Z,64.5
2023-04-15T08:28:00.729Z,64.5
2023-04-15T08:29:00.994Z,64.5
2023-04-15T08:30:02.771Z,65.1
2023-04-15T08:31:00.736Z,63.9
2023-04-15T08:32:00.797Z,63.9
2023-04-15T08:33:00.773Z,63.9
2023-04-15T08:34:00.738Z,63.9
2023-04-15T08:35:00.756Z,63.9
2023-04-15T08:36:00.746Z,64.5
2023-04-15T08:37:00.758Z,63.6
2023-04-15T08:38:00.727Z,63.6
2023-04-15T08:39:00.987Z,63.6
2023-04-15T08:40:00.753Z,62
2023-04-15T08:41:00.728Z,62.7
2023-04-15T08:42:00.942Z,62.1
2023-04-15T08:43:00.755Z,63
2023-04-15T08:44:00.733Z,62.1
2023-04-15T08:45:00.816Z,60.8
2023-04-15T08:46:00.725Z,60.2
2023-04-15T08:47:00.778Z,61.1
2023-04-15T08:48:00.771Z,61.8
2023-04-15T08:49:01.131Z,60.8
2023-04-15T08:50:00.764Z,59.9
2023-04-15T08:51:00.809Z,60.2
2023-04-15T08:52:00.785Z,60.2
2023-04-15T08:53:00.770Z,59.3
2023-04-15T08:54:00.765Z,60.8
2023-04-15T08:55:00.778Z,60.9
2023-04-15T08:56:00.795Z,59
2023-04-15T08:57:00.804Z,56.8
2023-04-15T08:58:00.760Z,57.1
2023-04-15T08:59:01.192Z,58.7
2023-04-15T09:00:02.913Z,59
2023-04-15T09:01:00.769Z,58.2
2023-04-15T09:02:00.766Z,59.6
2023-04-15T09:03:00.810Z,58.4
2023-04-15T09:04:00.803Z,57.7
2023-04-15T09:05:00.789Z,56.8
2023-04-15T09:06:00.796Z,58.3
2023-04-15T09:07:00.772Z,57.7
2023-04-15T09:08:00.808Z,59
2023-04-15T09:09:01.059Z,59.6
2023-04-15T09:10:00.793Z,59
2023-04-15T09:11:00.772Z,58.5
2023-04-15T09:12:00.800Z,57.7
2023-04-15T09:13:00.782Z,59
2023-04-15T09:14:00.811Z,59.6
2023-04-15T09:15:00.801Z,59.3
2023-04-15T09:16:00.794Z,59.6
2023-04-15T09:17:00.874Z,60.2
2023-04-15T09:18:00.864Z,60.2
2023-04-15T09:19:01.004Z,59.6
2023-04-15T09:20:00.794Z,59.9
2023-04-15T09:21:00.833Z,58.7
2023-04-15T09:22:00.778Z,59.6
2023-04-15T09:23:00.826Z,59.6
2023-04-15T09:24:01.162Z,59
2023-04-15T09:25:00.797Z,59.6
2023-04-15T09:26:00.773Z,58.4
2023-04-15T09:27:00.819Z,58.7
2023-04-15T09:28:00.834Z,57.1
2023-04-15T09:29:00.779Z,57.8
2023-04-15T09:30:00.808Z,58.4
2023-04-15T09:31:00.802Z,59
2023-04-15T09:32:00.808Z,58.4
2023-04-15T09:33:00.868Z,58.4
2023-04-15T09:34:01.043Z,58.1
2023-04-15T09:35:00.808Z,58.4
2023-04-15T09:36:00.798Z,57.8
2023-04-15T09:37:00.934Z,55.9
2023-04-15T09:38:00.810Z,57.2
2023-04-15T09:39:00.804Z,57.8
2023-04-15T09:40:00.810Z,56.3
2023-04-15T09:41:00.815Z,57.2
2023-04-15T09:42:00.799Z,57.5
2023-04-15T09:43:00.793Z,56
2023-04-15T09:44:01.132Z,54.1
2023-04-15T09:45:00.811Z,56.3
2023-04-15T09:46:00.852Z,56.6
2023-04-15T09:47:00.798Z,56
2023-04-15T09:48:00.940Z,54.7
2023-04-15T09:49:00.793Z,54.1
2023-04-15T09:50:00.921Z,52.8
2023-04-15T09:51:00.833Z,53.8
2023-04-15T09:52:05.768Z,52.2
2023-04-15T09:53:00.835Z,53.5
2023-04-15T09:54:01.107Z,54.1
2023-04-15T09:55:00.818Z,53.8
2023-04-15T09:56:00.855Z,53.2
2023-04-15T09:57:00.831Z,53.2
2023-04-15T09:58:00.819Z,52.9
2023-04-15T09:59:00.832Z,53.5
2023-04-15T10:00:00.822Z,52.3
2023-04-15T10:01:00.884Z,51
2023-04-15T10:02:00.830Z,51
2023-04-15T10:03:00.949Z,51
2023-04-15T10:04:01.086Z,52.3
2023-04-15T10:05:00.815Z,50.4
2023-04-15T10:06:00.895Z,51.4
2023-04-15T10:07:00.816Z,50.1
2023-04-15T10:08:00.849Z,51
2023-04-15T10:09:00.857Z,51.7
2023-04-15T10:10:00.829Z,52.9
2023-04-15T10:11:00.861Z,51.6
2023-04-15T10:12:00.853Z,50.4
2023-04-15T10:13:00.824Z,51
2023-04-15T10:14:01.175Z,50.7
2023-04-15T10:15:00.877Z,50.4
2023-04-15T10:16:00.863Z,50.4
2023-04-15T10:17:00.831Z,51.7
2023-04-15T10:18:00.936Z,51
2023-04-15T10:19:00.855Z,51.6
2023-04-15T10:20:00.868Z,52.3
2023-04-15T10:21:00.899Z,51
2023-04-15T10:22:00.849Z,51.7
2023-04-15T10:23:00.870Z,51.3
2023-04-15T10:24:01.208Z,50.4
2023-04-15T10:25:00.911Z,51.7
2023-04-15T10:26:00.867Z,51
2023-04-15T10:27:00.935Z,49.8
2023-04-15T10:28:00.914Z,49.8
2023-04-15T10:29:00.862Z,48.8
2023-04-15T10:30:00.877Z,49.7
2023-04-15T10:31:00.823Z,51.3
2023-04-15T10:32:00.771Z,51
2023-04-15T10:33:00.751Z,49.1
2023-04-15T10:34:01.011Z,49.1
2023-04-15T10:35:00.692Z,47.8
2023-04-15T10:36:00.657Z,47.8
2023-04-15T10:37:00.611Z,47.1
2023-04-15T10:38:00.616Z,48.7
2023-04-15T10:39:00.610Z,50.6
2023-04-15T10:40:00.553Z,50.9
2023-04-15T10:41:00.524Z,52.2
2023-04-15T10:42:00.467Z,52.8
2023-04-15T10:43:00.449Z,51.3
2023-04-15T10:44:00.630Z,51.9
2023-04-15T10:45:00.459Z,52.8
2023-04-15T10:46:00.426Z,53.4
2023-04-15T10:47:00.705Z,53.5
2023-04-15T10:48:02.280Z,52.5
2023-04-15T10:49:00.466Z,52.8
2023-04-15T10:50:00.482Z,52.8
2023-04-15T10:51:00.444Z,52.2
2023-04-15T10:52:00.434Z,51.6
2023-04-15T10:53:00.458Z,52.2
2023-04-15T10:54:01.445Z,52.5
2023-04-15T10:55:00.461Z,52.2
2023-04-15T10:56:00.435Z,52.2
2023-04-15T10:57:00.442Z,52.2
2023-04-15T10:58:00.429Z,50.6
2023-04-15T10:59:00.436Z,52.2
2023-04-15T11:00:00.506Z,52.6
2023-04-15T11:01:00.459Z,52.2
2023-04-15T11:02:00.657Z,50.3
2023-04-15T11:03:00.611Z,51
2023-04-15T17:51:00.346Z,60.4
2023-04-15T17:52:00.339Z,60.4
2023-04-15T17:53:00.289Z,60.1
2023-04-15T17:54:00.291Z,58.2
2023-04-15T17:55:00.286Z,59.2
2023-04-15T17:56:00.313Z,60.1
2023-04-15T17:57:00.360Z,58.8
2023-04-15T17:58:00.315Z,58.2
2023-04-15T17:59:00.312Z,58.2
2023-04-15T18:00:00.400Z,58.8
2023-04-15T18:01:00.326Z,60.1
2023-04-15T18:02:00.498Z,60.7
2023-04-15T18:03:00.463Z,61.4
2023-04-15T18:04:00.491Z,62
2023-04-15T18:05:00.605Z,62
2023-04-15T18:06:00.331Z,63.6
2023-04-15T18:07:00.308Z,64.5
2023-04-15T18:08:00.307Z,65.1
2023-04-15T18:09:00.310Z,65.1
2023-04-15T18:10:00.336Z,65.7
2023-04-15T18:11:00.322Z,65.7
2023-04-15T18:12:00.310Z,65.7
2023-04-15T18:13:00.320Z,65.1
2023-04-15T18:14:00.337Z,64.8
2023-04-15T18:15:00.331Z,64.8
2023-04-15T18:16:00.332Z,64.8
2023-04-15T18:17:00.310Z,65.4
2023-04-15T18:18:00.363Z,65.1
2023-04-15T18:19:00.362Z,64.5
2023-04-15T18:20:00.346Z,64.5
2023-04-15T18:21:00.317Z,65.1
2023-04-15T18:22:00.726Z,65.1
2023-04-15T18:23:00.317Z,65.7
2023-04-15T18:24:00.354Z,65.7
2023-04-15T18:25:00.331Z,65.4
2023-04-15T18:26:00.333Z,66
2023-04-15T18:27:00.366Z,65.7
2023-04-15T18:28:00.320Z,65.7
2023-04-15T18:29:00.361Z,65.7
2023-04-15T18:30:00.402Z,66
2023-04-15T18:31:00.328Z,65.1
2023-04-15T18:32:00.600Z,63.8
2023-04-15T18:33:00.419Z,63.2
2023-04-15T18:34:00.360Z,62.9
2023-04-15T18:35:00.356Z,63.2
2023-04-15T18:36:00.345Z,63.2
2023-04-15T18:37:00.342Z,63.2
2023-04-15T18:38:00.346Z,63.5
2023-04-15T18:39:00.375Z,63.5
2023-04-15T18:40:00.348Z,64.1
2023-04-15T18:41:00.349Z,64.4
2023-04-15T18:42:00.372Z,65.7
2023-04-15T18:43:00.352Z,65
2023-04-15T18:44:00.377Z,63.1
2023-04-15T18:45:00.381Z,61.9
2023-04-15T18:46:00.428Z,62.5
2023-04-15T18:47:00.366Z,62.5
2023-04-15T18:48:00.375Z,62.5
2023-04-15T18:49:00.379Z,62.5
2023-04-15T18:50:00.373Z,62.5
2023-04-15T18:51:00.348Z,62.2
2023-04-15T18:52:00.346Z,61.9
2023-04-15T18:53:00.354Z,61.9
2023-04-15T18:54:00.373Z,62.5
2023-04-15T18:55:00.381Z,63.1
2023-04-15T18:56:00.356Z,62.8
2023-04-15T18:57:00.385Z,63.1
2023-04-15T18:58:06.410Z,63.1
2023-04-15T18:59:23.112Z,63.7
2023-04-15T19:00:00.354Z,63.1
2023-04-15T19:01:00.430Z,63.4
2023-04-15T19:02:00.479Z,63.7
2023-04-15T19:03:00.442Z,64
2023-04-15T19:04:00.432Z,64.3
2023-04-15T19:05:00.385Z,64.4
2023-04-15T19:06:00.395Z,64.4
2023-04-15T19:07:00.365Z,64.4
2023-04-15T19:08:00.389Z,64.7
2023-04-15T19:09:00.400Z,65.6
2023-04-15T19:10:00.372Z,65.6
2023-04-15T19:11:00.371Z,65.3
2023-04-15T19:12:00.394Z,65.3
2023-04-15T19:13:00.374Z,65.6
2023-04-15T19:14:00.411Z,65.6
2023-04-15T19:15:00.399Z,65.6
2023-04-15T19:16:00.445Z,65.9
2023-04-15T19:17:00.435Z,66.2
2023-04-15T19:18:00.446Z,67.5
2023-04-15T19:19:00.376Z,66.8
2023-04-15T19:20:00.445Z,66.9
2023-04-15T19:21:00.392Z,67.2
2023-04-15T19:22:00.377Z,66.2
2023-04-15T19:23:00.385Z,66.9
2023-04-15T19:24:00.376Z,68.1
2023-04-15T19:25:00.406Z,68.1
2023-04-15T19:26:00.419Z,68.7
2023-04-15T19:27:00.386Z,69.4
2023-04-15T19:28:00.394Z,69
2023-04-15T19:29:00.410Z,69.4
2023-04-15T19:30:00.431Z,68.7
2023-04-15T19:31:00.480Z,69.4
2023-04-15T19:32:00.397Z,69.7
2023-04-15T19:33:00.567Z,70
2023-04-15T19:34:00.407Z,69.3
2023-04-15T19:35:00.426Z,69.6
2023-04-15T19:36:00.415Z,69.6
2023-04-15T19:37:00.403Z,70.6
2023-04-15T19:38:00.402Z,70.3
2023-04-15T19:39:00.430Z,70.6
2023-04-15T19:40:00.453Z,70.6
2023-04-15T19:41:00.422Z,70.9
2023-04-15T19:42:00.408Z,71.2
2023-04-15T19:43:00.410Z,71.2
2023-04-15T19:44:00.413Z,71.5
2023-04-15T19:45:00.471Z,71.2
2023-04-15T19:46:00.513Z,71.8
2023-04-15T19:47:00.423Z,71.8
2023-04-15T19:48:00.463Z,71.8
2023-04-15T19:49:00.396Z,71.8
2023-04-15T19:50:00.460Z,72.1
2023-04-15T19:51:00.438Z,72.4
2023-04-15T19:52:00.434Z,72.4
2023-04-15T19:53:00.405Z,73
2023-04-15T19:54:00.412Z,73
2023-04-15T19:55:00.442Z,73
2023-04-15T19:56:00.438Z,73.3
2023-04-15T19:57:00.445Z,73.6
2023-04-15T19:58:00.422Z,73.6
2023-04-15T19:59:00.422Z,73.6
2023-04-15T20:00:00.415Z,73.6
2023-04-15T20:01:00.436Z,74.9
2023-04-15T20:02:00.533Z,74.6
2023-04-15T20:03:00.810Z,74.9
2023-04-15T20:04:00.637Z,75.2
2023-04-15T20:05:00.458Z,75.5
2023-04-15T20:06:00.420Z,75.5
2023-04-15T20:07:00.451Z,75.5
2023-04-15T20:08:00.428Z,74.9
2023-04-15T20:09:00.443Z,75.8
2023-04-15T20:10:00.433Z,75.8
2023-04-15T20:11:00.456Z,76.1